createdAt,value
2019-06-26T00:00:14.329Z,101417.66
2019-06-26T00:02:44.884Z,101414.89
2019-06-26T00:05:15.035Z,101419.36
2019-06-26T00:07:45.066Z,101416.05
2019-06-26T00:10:15.612Z,101418.36
2019-06-26T00:12:45.718Z,101414.83
2019-06-26T00:15:18.402Z,101418.66
2019-06-26T00:17:48.435Z,101410.45
2019-06-26T00:20:18.884Z,101411.75
2019-06-26T00:22:48.909Z,101415.22
2019-06-26T00:25:19.016Z,101417.77
2019-06-26T00:27:49.171Z,101415.40
2019-06-26T00:30:19.328Z,101416.48
2019-06-26T00:32:49.408Z,101413.53
2019-06-26T00:35:19.448Z,101416.95
2019-06-26T00:37:52.993Z,101410.69
2019-06-26T00:40:24.227Z,101415.09
2019-06-26T00:42:54.232Z,101419.63
2019-06-26T00:45:24.324Z,101418.98
2019-06-26T00:47:54.369Z,101425.78
2019-06-26T00:50:25.591Z,101421.69
2019-06-26T00:52:56.461Z,101428.77
2019-06-26T00:55:26.501Z,101425.34
2019-06-26T00:57:57.027Z,101419.45
2019-06-26T01:00:38.901Z,101425.23
2019-06-26T01:03:08.918Z,101425.88
2019-06-26T01:05:40.457Z,101420.06
2019-06-26T01:08:10.465Z,101422.15
2019-06-26T01:10:43.326Z,101423.02
2019-06-26T01:13:13.465Z,101414.56
2019-06-26T01:15:43.574Z,101418.91
2019-06-26T01:18:13.575Z,101414.81
2019-06-26T01:20:43.679Z,101415.11
2019-06-26T01:23:13.685Z,101409.10
2019-06-26T01:25:43.721Z,101409.75
2019-06-26T01:28:15.247Z,101410.50
2019-06-26T01:30:45.352Z,101415.07
2019-06-26T01:33:15.411Z,101422.11
2019-06-26T01:35:45.507Z,101413.23
2019-06-26T01:38:15.812Z,101416.28
2019-06-26T01:40:46.662Z,101421.92
2019-06-26T01:43:16.670Z,101419.38
2019-06-26T01:45:46.695Z,101432.45
2019-06-26T01:48:16.703Z,101422.14
2019-06-26T01:50:48.703Z,101430.89
2019-06-26T01:53:19.744Z,101429.56
2019-06-26T01:55:49.802Z,101427.19
2019-06-26T01:58:19.813Z,101433.58
2019-06-26T02:00:49.909Z,101424.84
2019-06-26T02:03:20.070Z,101428.36
2019-06-26T02:05:50.333Z,101427.21
2019-06-26T02:08:20.369Z,101434.63
2019-06-26T02:10:50.518Z,101435.03
2019-06-26T02:13:20.889Z,101426.50
2019-06-26T02:15:51.033Z,101437.92
2019-06-26T02:18:34.721Z,101438.30
2019-06-26T02:21:04.832Z,101441.05
2019-06-26T02:23:34.908Z,101442.02
2019-06-26T02:26:05.072Z,101445.14
2019-06-26T02:28:35.076Z,101440.59
2019-06-26T02:31:05.176Z,101440.50
2019-06-26T02:33:36.939Z,101443.52
2019-06-26T02:36:06.980Z,101451.02
2019-06-26T02:38:41.485Z,101451.13
2019-06-26T02:41:13.831Z,101455.47
2019-06-26T02:43:45.471Z,101454.64
2019-06-26T02:46:15.516Z,101452.66
2019-06-26T02:48:45.570Z,101458.06
2019-06-26T02:51:18.647Z,101452.55
2019-06-26T02:53:48.999Z,101459.39
2019-06-26T02:56:19.652Z,101450.45
2019-06-26T02:58:51.729Z,101444.28
2019-06-26T03:01:21.814Z,101448.06
2019-06-26T03:03:51.997Z,101451.48
2019-06-26T03:06:22.566Z,101453.30
2019-06-26T03:08:55.581Z,101456.13
2019-06-26T03:11:25.976Z,101457.30
2019-06-26T03:13:55.997Z,101461.84
2019-06-26T03:16:26.341Z,101467.63
2019-06-26T03:18:56.437Z,101463.94
2019-06-26T03:21:26.411Z,101467.36
2019-06-26T03:23:56.440Z,101465.07
2019-06-26T03:26:26.531Z,101467.16
2019-06-26T03:28:58.182Z,101464.20
2019-06-26T03:31:28.407Z,101470.58
2019-06-26T03:34:01.246Z,101468.75
2019-06-26T03:36:31.242Z,101463.73
2019-06-26T03:39:01.282Z,101471.59
2019-06-26T03:41:32.938Z,101468.06
2019-06-26T03:44:02.969Z,101472.24
2019-06-26T03:46:34.778Z,101473.73
2019-06-26T03:49:06.008Z,101477.14
2019-06-26T03:51:37.056Z,101475.46
2019-06-26T03:54:07.091Z,101476.02
2019-06-26T03:56:37.095Z,101478.45
2019-06-26T03:59:07.182Z,101477.56
2019-06-26T04:01:37.288Z,101477.17
2019-06-26T04:04:11.502Z,101477.98
2019-06-26T04:06:41.512Z,101480.58
2019-06-26T04:09:11.901Z,101481.06
2019-06-26T04:11:43.312Z,101477.02
2019-06-26T04:14:13.339Z,101482.05
2019-06-26T04:16:44.995Z,101484.80
2019-06-26T04:19:15.024Z,101485.50
2019-06-26T04:21:45.560Z,101490.44
2019-06-26T04:24:15.591Z,101491.77
2019-06-26T04:26:45.592Z,101494.00
2019-06-26T04:29:15.608Z,101498.77
2019-06-26T04:31:45.631Z,101506.00
2019-06-26T04:34:17.082Z,101501.70
2019-06-26T04:36:47.112Z,101501.32
2019-06-26T04:39:17.114Z,101500.11
2019-06-26T04:41:47.150Z,101509.02
2019-06-26T04:44:17.147Z,101512.08
2019-06-26T04:46:47.182Z,101507.37
2019-06-26T04:49:17.202Z,101505.91
2019-06-26T04:51:49.831Z,101507.32
2019-06-26T04:54:20.924Z,101502.25
2019-06-26T04:56:50.956Z,101507.05
2019-06-26T04:59:20.982Z,101508.50
2019-06-26T05:01:51.072Z,101508.67
2019-06-26T05:04:22.652Z,101511.39
2019-06-26T05:06:52.679Z,101509.97
2019-06-26T05:09:22.728Z,101515.73
2019-06-26T05:11:52.736Z,101516.75
2019-06-26T05:14:22.801Z,101510.91
2019-06-26T05:16:53.856Z,101514.14
2019-06-26T05:19:23.946Z,101519.33
2019-06-26T05:21:53.946Z,101517.44
2019-06-26T05:24:23.957Z,101523.44
2019-06-26T05:26:53.949Z,101522.55
2019-06-26T05:29:24.604Z,101527.21
2019-06-26T05:31:54.641Z,101528.84
2019-06-26T05:34:25.214Z,101527.34
2019-06-26T05:36:55.225Z,101530.70
2019-06-26T05:39:25.567Z,101529.95
2019-06-26T05:41:55.607Z,101539.79
2019-06-26T05:44:25.690Z,101540.64
2019-06-26T05:46:55.712Z,101537.31
2019-06-26T05:49:25.807Z,101545.95
2019-06-26T05:51:55.810Z,101546.53
2019-06-26T05:54:25.828Z,101544.12
2019-06-26T05:56:55.843Z,101552.03
2019-06-26T05:59:25.842Z,101548.31
2019-06-26T06:01:59.146Z,101552.47
2019-06-26T06:04:29.168Z,101556.98
2019-06-26T06:06:59.187Z,101567.09
2019-06-26T06:09:31.577Z,101564.72
2019-06-26T06:12:01.678Z,101563.48
2019-06-26T06:14:32.300Z,101564.05
2019-06-26T06:17:04.235Z,101577.20
2019-06-26T06:19:35.296Z,101580.22
2019-06-26T06:22:05.318Z,101575.63
2019-06-26T06:24:35.314Z,101579.58
2019-06-26T06:27:05.468Z,101584.25
2019-06-26T06:29:35.476Z,101576.05
2019-06-26T06:32:05.565Z,101586.50
2019-06-26T06:34:35.550Z,101586.82
2019-06-26T06:37:05.580Z,101600.35
2019-06-26T06:39:35.572Z,101598.73
2019-06-26T06:42:05.583Z,101600.39
2019-06-26T06:44:35.597Z,101602.33
2019-06-26T06:47:08.775Z,101604.27
2019-06-26T06:49:39.113Z,101603.42
2019-06-26T06:52:09.108Z,101607.65
2019-06-26T06:54:39.131Z,101603.48
2019-06-26T06:57:09.126Z,101604.17
2019-06-26T06:59:39.152Z,101609.06
2019-06-26T07:02:09.151Z,101612.36
2019-06-26T07:04:39.152Z,101620.05
2019-06-26T07:07:09.146Z,101622.50
2019-06-26T07:09:39.165Z,101627.66
2019-06-26T07:12:11.315Z,101632.28
2019-06-26T07:14:45.935Z,101628.19
2019-06-26T07:17:20.382Z,101636.09
2019-06-26T07:19:50.594Z,101639.22
2019-06-26T07:22:20.588Z,101634.59
2019-06-26T07:24:50.607Z,101646.90
2019-06-26T07:27:23.267Z,101643.40
2019-06-26T07:29:53.280Z,101647.91
2019-06-26T07:32:23.374Z,101651.70
2019-06-26T07:34:53.440Z,101650.66
2019-06-26T07:37:23.445Z,101648.69
2019-06-26T07:39:58.739Z,101654.78
2019-06-26T07:42:26.063Z,101652.03
2019-06-26T07:44:56.084Z,101658.23
2019-06-26T07:47:41.862Z,101655.13
2019-06-26T07:50:06.174Z,101661.20
2019-06-26T07:52:36.278Z,101660.56
2019-06-26T07:55:11.755Z,101657.16
2019-06-26T07:57:40.103Z,101656.47
2019-06-26T08:00:10.584Z,101659.98
2019-06-26T08:02:40.988Z,101658.28
2019-06-26T08:05:14.461Z,101660.78
2019-06-26T08:07:44.597Z,101663.16
2019-06-26T08:10:16.158Z,101663.28
2019-06-26T08:12:46.172Z,101654.41
2019-06-26T08:15:18.284Z,101664.43
2019-06-26T08:17:59.995Z,101654.86
2019-06-26T08:20:24.892Z,101661.41
2019-06-26T08:22:54.969Z,101661.44
2019-06-26T08:25:25.056Z,101659.44
2019-06-26T08:27:55.233Z,101664.22
2019-06-26T08:30:27.192Z,101665.94
2019-06-26T08:32:57.935Z,101667.45
2019-06-26T08:35:27.965Z,101665.11
2019-06-26T08:38:09.879Z,101670.35
2019-06-26T08:40:29.697Z,101669.43
2019-06-26T08:42:59.731Z,101677.92
2019-06-26T08:45:31.854Z,101675.09
2019-06-26T08:48:17.420Z,101681.31
2019-06-26T08:50:42.059Z,101678.67
2019-06-26T08:53:12.066Z,101683.77
2019-06-26T08:55:42.065Z,101685.48
2019-06-26T08:58:12.171Z,101684.50
2019-06-26T09:00:49.066Z,101689.98
2019-06-26T09:03:19.186Z,101690.19
2019-06-26T09:05:49.386Z,101691.39
2019-06-26T09:08:22.759Z,101697.83
2019-06-26T09:10:58.477Z,101686.17
2019-06-26T09:13:29.756Z,101689.56
2019-06-26T09:15:59.715Z,101689.73
2019-06-26T09:18:35.407Z,101684.80
2019-06-26T09:21:03.288Z,101695.32
2019-06-26T09:23:35.207Z,101699.83
2019-06-26T09:26:05.387Z,101704.53
2019-06-26T09:28:35.455Z,101705.00
2019-06-26T09:31:07.689Z,101702.17
2019-06-26T09:33:40.728Z,101699.16
2019-06-26T09:36:12.049Z,101698.15
2019-06-26T09:38:42.065Z,101704.59
2019-06-26T09:41:12.114Z,101695.81
2019-06-26T09:43:42.919Z,101695.47
2019-06-26T09:46:12.997Z,101698.74
2019-06-26T09:48:52.668Z,101700.05
2019-06-26T09:51:14.728Z,101701.96
2019-06-26T09:53:47.654Z,101693.78
2019-06-26T09:56:16.556Z,101701.96
2019-06-26T09:58:49.657Z,101702.97
2019-06-26T10:01:21.542Z,101703.64
2019-06-26T10:03:51.587Z,101707.03
2019-06-26T10:06:23.301Z,101700.27
2019-06-26T10:08:54.571Z,101706.02
2019-06-26T10:11:24.896Z,101704.48
2019-06-26T10:13:54.929Z,101705.52
2019-06-26T10:16:24.940Z,101709.09
2019-06-26T10:19:09.735Z,101708.25
2019-06-26T10:21:30.137Z,101713.83
2019-06-26T10:24:00.298Z,101712.77
2019-06-26T10:26:32.586Z,101717.52
2019-06-26T10:29:02.035Z,101711.57
2019-06-26T10:31:32.398Z,101713.28
2019-06-26T10:34:02.530Z,101720.58
2019-06-26T10:36:32.917Z,101722.91
2019-06-26T10:39:07.873Z,101716.52
2019-06-26T10:41:39.544Z,101716.14
2019-06-26T10:44:09.548Z,101715.49
2019-06-26T10:46:39.660Z,101718.48
2019-06-26T10:49:22.687Z,101716.81
2019-06-26T10:51:41.462Z,101723.91
2019-06-26T10:54:11.616Z,101723.27
2019-06-26T10:56:41.588Z,101723.55
2019-06-26T10:59:11.681Z,101710.98
2019-06-26T11:01:43.630Z,101711.80
2019-06-26T11:04:13.622Z,101717.70
2019-06-26T11:06:43.613Z,101716.68
2019-06-26T11:09:13.637Z,101714.64
2019-06-26T11:11:46.386Z,101712.29
2019-06-26T11:14:16.433Z,101706.88
2019-06-26T11:16:46.419Z,101705.50
2019-06-26T11:19:16.451Z,101703.56
2019-06-26T11:21:48.294Z,101706.77
2019-06-26T11:24:18.334Z,101706.70
2019-06-26T11:26:48.363Z,101709.23
2019-06-26T11:29:18.435Z,101706.65
2019-06-26T11:31:48.461Z,101709.30
2019-06-26T11:34:20.114Z,101708.96
2019-06-26T11:37:03.268Z,101697.81
2019-06-26T11:39:25.133Z,101703.45
2019-06-26T11:41:55.229Z,101702.03
2019-06-26T11:44:25.325Z,101703.63
2019-06-26T11:46:58.334Z,101691.31
2019-06-26T11:49:28.385Z,101701.67
2019-06-26T11:51:58.371Z,101689.33
2019-06-26T11:54:28.385Z,101693.81
2019-06-26T11:56:59.321Z,101691.70
2019-06-26T11:59:29.366Z,101694.00
2019-06-26T12:01:59.388Z,101691.93
2019-06-26T12:04:31.040Z,101696.50
2019-06-26T12:07:01.068Z,101685.48
2019-06-26T12:09:31.101Z,101682.72
2019-06-26T12:12:01.797Z,101687.77
2019-06-26T12:14:31.974Z,101693.48
2019-06-26T12:17:02.000Z,101680.39
2019-06-26T12:19:31.976Z,101685.95
2019-06-26T12:22:02.148Z,101684.51
2019-06-26T12:24:32.238Z,101681.84
2019-06-26T12:27:06.871Z,101685.09
2019-06-26T12:29:36.905Z,101679.53
2019-06-26T12:32:06.979Z,101688.64
2019-06-26T12:34:37.063Z,101687.70
2019-06-26T12:37:07.080Z,101688.29
2019-06-26T12:39:37.082Z,101686.30
2019-06-26T12:42:07.693Z,101694.17
2019-06-26T12:44:37.685Z,101691.98
2019-06-26T12:47:09.497Z,101691.14
2019-06-26T12:49:40.826Z,101705.05
2019-06-26T12:52:10.836Z,101698.94
2019-06-26T12:54:43.602Z,101697.19
2019-06-26T12:57:13.788Z,101696.52
2019-06-26T12:59:56.680Z,101699.45
2019-06-26T13:02:19.392Z,101695.83
2019-06-26T13:04:50.465Z,101695.38
2019-06-26T13:07:20.481Z,101699.11
2019-06-26T13:09:50.482Z,101699.74
2019-06-26T13:12:21.636Z,101696.52
2019-06-26T13:14:54.802Z,101688.77
2019-06-26T13:17:24.956Z,101689.96
2019-06-26T13:19:56.660Z,101694.30
2019-06-26T13:22:28.547Z,101689.52
2019-06-26T13:24:58.577Z,101695.16
2019-06-26T13:27:30.185Z,101693.48
2019-06-26T13:30:00.702Z,101698.88
2019-06-26T13:32:30.797Z,101696.66
2019-06-26T13:35:00.833Z,101687.22
2019-06-26T13:37:30.934Z,101690.66
2019-06-26T13:40:00.942Z,101699.91
2019-06-26T13:42:32.039Z,101696.92
2019-06-26T13:45:02.185Z,101698.28
2019-06-26T13:47:32.583Z,101692.34
2019-06-26T13:50:03.631Z,101699.01
2019-06-26T13:52:33.618Z,101702.45
2019-06-26T13:55:04.174Z,101707.56
2019-06-26T13:57:34.192Z,101711.87
2019-06-26T14:00:06.123Z,101702.28
2019-06-26T14:02:40.186Z,101688.53
2019-06-26T14:05:10.379Z,101702.93
2019-06-26T14:07:40.475Z,101698.66
2019-06-26T14:10:11.137Z,101704.01
2019-06-26T14:12:41.125Z,101705.14
2019-06-26T14:15:11.587Z,101710.41
2019-06-26T14:17:41.730Z,101713.31
2019-06-26T14:20:15.374Z,101708.99
2019-06-26T14:22:45.412Z,101716.08
2019-06-26T14:25:16.198Z,101708.91
2019-06-26T14:27:47.285Z,101704.29
2019-06-26T14:30:17.731Z,101708.75
2019-06-26T14:32:49.778Z,101712.12
2019-06-26T14:35:20.273Z,101718.63
2019-06-26T14:37:50.436Z,101720.05
2019-06-26T14:40:20.871Z,101719.86
2019-06-26T14:42:50.899Z,101718.41
2019-06-26T14:45:20.989Z,101719.56
2019-06-26T14:47:50.993Z,101708.76
2019-06-26T14:50:24.155Z,101713.12
2019-06-26T14:52:54.231Z,101721.21
2019-06-26T14:55:24.334Z,101730.05
2019-06-26T14:57:54.377Z,101727.86
2019-06-26T15:00:25.027Z,101727.94
2019-06-26T15:02:55.133Z,101734.61
2019-06-26T15:05:25.288Z,101733.08
2019-06-26T15:07:55.543Z,101733.95
2019-06-26T15:10:25.659Z,101726.47
2019-06-26T15:12:55.670Z,101734.80
2019-06-26T15:15:25.794Z,101739.16
2019-06-26T15:17:55.897Z,101746.85
2019-06-26T15:20:27.572Z,101741.36
2019-06-26T15:22:58.887Z,101745.24
2019-06-26T15:25:31.773Z,101746.59
2019-06-26T15:28:01.818Z,101741.38
2019-06-26T15:30:31.982Z,101742.54
2019-06-26T15:33:02.010Z,101741.22
2019-06-26T15:35:35.468Z,101743.27
2019-06-26T15:38:05.571Z,101745.98
2019-06-26T15:40:35.781Z,101749.89
2019-06-26T15:43:05.848Z,101753.74
2019-06-26T15:45:36.025Z,101753.11
2019-06-26T15:48:06.142Z,101756.28
2019-06-26T15:50:36.146Z,101750.00
2019-06-26T15:53:08.698Z,101747.92
2019-06-26T15:55:38.697Z,101763.91
2019-06-26T15:58:08.838Z,101759.53
2019-06-26T16:00:42.501Z,101752.92
2019-06-26T16:03:12.579Z,101772.91
2019-06-26T16:05:42.677Z,101760.39
2019-06-26T16:08:13.666Z,101759.55
2019-06-26T16:10:43.712Z,101760.88
2019-06-26T16:13:16.449Z,101775.28
2019-06-26T16:15:49.555Z,101775.08
2019-06-26T16:18:22.522Z,101772.41
2019-06-26T16:20:53.648Z,101782.68
2019-06-26T16:23:23.767Z,101776.80
2019-06-26T16:25:53.752Z,101779.96
2019-06-26T16:28:23.775Z,101775.16
2019-06-26T16:30:53.755Z,101774.98
2019-06-26T16:33:23.774Z,101784.34
2019-06-26T16:35:55.710Z,101785.98
2019-06-26T16:38:25.797Z,101782.14
2019-06-26T16:40:55.852Z,101791.09
2019-06-26T16:43:25.878Z,101785.59
2019-06-26T16:45:55.882Z,101794.08
2019-06-26T16:48:26.007Z,101799.73
2019-06-26T16:50:55.994Z,101796.17
2019-06-26T16:53:26.017Z,101797.58
2019-06-26T16:55:56.052Z,101799.22
2019-06-26T16:58:26.085Z,101804.26
2019-06-26T17:00:57.004Z,101806.91
2019-06-26T17:03:29.836Z,101808.26
2019-06-26T17:06:00.089Z,101815.55
2019-06-26T17:08:30.184Z,101816.94
2019-06-26T17:11:00.402Z,101817.80
2019-06-26T17:13:30.483Z,101811.62
2019-06-26T17:16:00.565Z,101818.77
2019-06-26T17:18:30.560Z,101820.37
2019-06-26T17:21:00.599Z,101816.91
2019-06-26T17:23:30.631Z,101830.99
2019-06-26T17:26:00.674Z,101833.35
2019-06-26T17:28:30.652Z,101836.42
2019-06-26T17:31:00.747Z,101841.67
2019-06-26T17:33:30.871Z,101845.05
2019-06-26T17:36:00.905Z,101846.34
2019-06-26T17:38:30.979Z,101852.91
2019-06-26T17:41:00.999Z,101854.30
2019-06-26T17:43:30.991Z,101857.42
2019-06-26T17:46:02.654Z,101855.02
2019-06-26T17:48:32.657Z,101860.78
2019-06-26T17:51:03.280Z,101862.94
2019-06-26T17:53:33.432Z,101857.72
2019-06-26T17:56:03.621Z,101862.83
2019-06-26T17:58:34.897Z,101868.44
2019-06-26T18:01:04.858Z,101867.63
2019-06-26T18:03:35.131Z,101870.06
2019-06-26T18:06:06.510Z,101887.42
2019-06-26T18:08:36.599Z,101880.86
2019-06-26T18:11:07.800Z,101882.04
2019-06-26T18:13:38.319Z,101891.94
2019-06-26T18:16:08.378Z,101891.81
2019-06-26T18:18:38.494Z,101898.89
2019-06-26T18:21:08.795Z,101894.04
2019-06-26T18:23:38.868Z,101888.98
2019-06-26T18:26:13.596Z,101898.61
2019-06-26T18:28:42.378Z,101896.09
2019-06-26T18:31:12.446Z,101895.52
2019-06-26T18:33:44.324Z,101893.58
2019-06-26T18:36:14.232Z,101895.64
2019-06-26T18:38:44.244Z,101907.70
2019-06-26T18:41:14.233Z,101907.09
2019-06-26T18:43:44.318Z,101912.45
2019-06-26T18:46:14.346Z,101916.32
2019-06-26T18:48:44.517Z,101915.58
2019-06-26T18:51:14.526Z,101919.55
2019-06-26T18:53:53.619Z,101911.55
2019-06-26T18:56:16.879Z,101926.80
2019-06-26T18:58:46.863Z,101925.37
2019-06-26T19:01:19.637Z,101922.39
2019-06-26T19:03:49.619Z,101937.18
2019-06-26T19:06:22.382Z,101941.11
2019-06-26T19:08:52.401Z,101947.27
2019-06-26T19:11:22.394Z,101950.94
2019-06-26T19:13:52.781Z,101961.62
2019-06-26T19:16:22.780Z,101968.45
2019-06-26T19:18:52.790Z,101976.53
2019-06-26T19:21:22.794Z,101978.09
2019-06-26T19:24:08.871Z,101973.64
2019-06-26T19:26:24.580Z,101974.73
2019-06-26T19:28:55.135Z,101967.16
2019-06-26T19:31:25.216Z,101977.69
2019-06-26T19:33:55.237Z,101978.55
2019-06-26T19:36:28.519Z,101976.84
2019-06-26T19:38:56.984Z,101984.87
2019-06-26T19:41:27.055Z,101986.18
2019-06-26T19:43:57.153Z,101985.99
2019-06-26T19:46:27.245Z,101994.12
2019-06-26T19:48:57.750Z,101998.31
2019-06-26T19:51:28.021Z,102000.30
2019-06-26T19:53:58.003Z,102014.59
2019-06-26T19:56:28.105Z,102018.50
2019-06-26T19:58:58.095Z,102014.20
2019-06-26T20:01:28.193Z,102022.09
2019-06-26T20:03:58.206Z,102028.59
2019-06-26T20:06:28.291Z,102033.33
2019-06-26T20:08:58.275Z,102033.65
2019-06-26T20:11:28.373Z,102040.88
2019-06-26T20:13:58.376Z,102033.80
2019-06-26T20:16:28.473Z,102033.66
2019-06-26T20:18:58.458Z,102045.20
2019-06-26T20:21:29.560Z,102043.77
2019-06-26T20:23:59.556Z,102043.48
2019-06-26T20:26:29.582Z,102044.52
2019-06-26T20:28:59.656Z,102044.09
2019-06-26T20:31:29.729Z,102046.44
2019-06-26T20:33:59.725Z,102048.91
2019-06-26T20:36:29.737Z,102049.23
2019-06-26T20:38:59.735Z,102046.94
2019-06-26T20:41:29.816Z,102054.69
2019-06-26T20:43:59.819Z,102055.66
2019-06-26T20:46:29.900Z,102061.00
2019-06-26T20:48:59.972Z,102068.26
2019-06-26T20:51:29.986Z,102075.73
2019-06-26T20:54:00.251Z,102075.95
2019-06-26T20:56:30.261Z,102088.34
2019-06-26T20:59:00.268Z,102090.42
2019-06-26T21:01:30.356Z,102087.91
2019-06-26T21:04:00.347Z,102084.96
2019-06-26T21:06:30.428Z,102092.59
2019-06-26T21:09:00.498Z,102088.28
2019-06-26T21:11:31.686Z,102093.04
2019-06-26T21:14:02.762Z,102084.26
2019-06-26T21:16:33.854Z,102096.30
2019-06-26T21:19:06.626Z,102102.22
2019-06-26T21:21:38.737Z,102110.39
2019-06-26T21:24:08.354Z,102112.72
2019-06-26T21:26:38.434Z,102111.09
2019-06-26T21:29:10.071Z,102113.36
2019-06-26T21:31:40.102Z,102112.13
2019-06-26T21:34:10.240Z,102117.20
2019-06-26T21:36:40.229Z,102125.98
2019-06-26T21:39:10.234Z,102118.89
2019-06-26T21:41:40.227Z,102123.78
2019-06-26T21:44:10.242Z,102128.00
2019-06-26T21:46:40.268Z,102134.80
2019-06-26T21:49:10.353Z,102127.40
2019-06-26T21:51:43.155Z,102117.77
2019-06-26T21:54:13.177Z,102120.32
2019-06-26T21:57:00.886Z,102127.33
2019-06-26T21:59:48.841Z,102126.94
2019-06-26T22:02:36.974Z,102128.25
2019-06-26T22:05:09.271Z,102126.54
2019-06-26T22:07:40.949Z,102122.27
2019-06-26T22:10:13.194Z,102126.39
2019-06-26T22:12:46.266Z,102121.89
2019-06-26T22:15:16.751Z,102127.02
2019-06-26T22:17:46.811Z,102127.89
2019-06-26T22:20:17.155Z,102128.27
2019-06-26T22:22:47.286Z,102129.00
2019-06-26T22:25:17.565Z,102129.59
2019-06-26T22:27:47.860Z,102128.43
2019-06-26T22:30:19.818Z,102129.48
2019-06-26T22:32:49.867Z,102126.44
2019-06-26T22:35:19.950Z,102135.94
2019-06-26T22:37:51.874Z,102129.05
2019-06-26T22:40:21.883Z,102127.59
2019-06-26T22:42:51.961Z,102138.32
2019-06-26T22:45:22.997Z,102135.53
2019-06-26T22:47:53.009Z,102142.50
2019-06-26T22:50:23.074Z,102142.95
2019-06-26T22:52:53.162Z,102146.02
2019-06-26T22:55:23.227Z,102146.78
2019-06-26T22:57:57.801Z,102141.63
2019-06-26T23:00:27.920Z,102147.06
2019-06-26T23:02:57.958Z,102141.91
2019-06-26T23:05:27.952Z,102145.36
2019-06-26T23:07:57.978Z,102145.00
2019-06-26T23:10:27.997Z,102134.96
2019-06-26T23:12:59.670Z,102145.36
2019-06-26T23:15:29.684Z,102145.01
2019-06-26T23:17:59.702Z,102142.67
2019-06-26T23:20:29.697Z,102149.56
2019-06-26T23:22:59.772Z,102154.37
2019-06-26T23:25:30.257Z,102152.28
2019-06-26T23:28:03.344Z,102163.53
2019-06-26T23:30:33.351Z,102154.72
2019-06-26T23:33:04.862Z,102157.72
2019-06-26T23:35:35.464Z,102151.98
2019-06-26T23:38:05.826Z,102150.44
2019-06-26T23:40:35.856Z,102148.88
2019-06-26T23:43:05.942Z,102145.00
2019-06-26T23:45:36.090Z,102145.89
2019-06-26T23:48:06.166Z,102148.02
2019-06-26T23:50:36.184Z,102147.91
2019-06-26T23:53:06.178Z,102153.78
2019-06-26T23:55:36.187Z,102147.03
2019-06-26T23:58:06.248Z,102145.49
